createdAt,value
2023-05-21T00:01:49.004Z,14.08
2023-05-21T00:04:15.856Z,13.99
2023-05-21T00:06:42.349Z,13.97
2023-05-21T00:09:09.007Z,13.96
2023-05-21T00:11:36.287Z,13.98
2023-05-21T00:14:02.908Z,13.99
2023-05-21T00:16:29.581Z,13.99
2023-05-21T00:18:56.143Z,14.00
2023-05-21T00:21:22.746Z,14.01
2023-05-21T00:23:50.054Z,13.99
2023-05-21T00:26:16.564Z,13.94
2023-05-21T00:28:43.410Z,13.89
2023-05-21T00:31:10.066Z,13.88
2023-05-21T00:33:36.587Z,13.90
2023-05-21T00:36:03.274Z,13.94
2023-05-21T00:38:29.945Z,13.96
2023-05-21T00:40:56.560Z,13.98
2023-05-21T00:43:25.149Z,13.92
2023-05-21T00:45:51.970Z,13.84
2023-05-21T00:48:18.667Z,13.77
2023-05-21T00:50:45.154Z,13.77
2023-05-21T00:53:12.487Z,13.76
2023-05-21T00:55:40.112Z,13.74
2023-05-21T00:58:07.824Z,13.71
2023-05-21T01:00:35.746Z,13.67
2023-05-21T01:03:02.840Z,13.67
2023-05-21T01:05:29.647Z,13.63
2023-05-21T01:07:57.455Z,13.65
2023-05-21T01:10:27.681Z,13.66
2023-05-21T01:12:55.952Z,13.67
2023-05-21T01:15:23.335Z,13.67
2023-05-21T01:17:51.285Z,13.67
2023-05-21T01:20:20.004Z,13.65
2023-05-21T01:22:56.466Z,13.61
2023-05-21T01:25:23.667Z,13.62
2023-05-21T01:27:51.023Z,13.60
2023-05-21T01:30:19.482Z,13.60
2023-05-21T01:33:03.553Z,13.61
2023-05-21T01:35:35.263Z,13.61
2023-05-21T01:38:22.201Z,13.62
2023-05-21T01:41:04.153Z,13.61
2023-05-21T01:43:37.378Z,13.56
2023-05-21T01:46:05.635Z,13.46
2023-05-21T01:48:32.598Z,13.39
2023-05-21T01:51:05.201Z,13.40
2023-05-21T01:53:32.614Z,13.38
2023-05-21T01:55:59.211Z,13.33
2023-05-21T01:58:25.928Z,13.27
2023-05-21T02:00:54.231Z,13.26
2023-05-21T02:03:21.617Z,13.22
2023-05-21T02:05:48.253Z,13.09
2023-05-21T02:08:14.782Z,12.97
2023-05-21T02:10:42.020Z,12.97
2023-05-21T02:13:10.095Z,12.90
2023-05-21T02:15:37.091Z,12.87
2023-05-21T02:18:04.157Z,12.84
2023-05-21T02:20:38.147Z,12.78
2023-05-21T02:23:04.645Z,12.77
2023-05-21T02:25:31.770Z,12.79
2023-05-21T02:27:58.263Z,12.77
2023-05-21T02:30:24.867Z,12.78
2023-05-21T02:32:51.789Z,12.78
2023-05-21T02:35:18.393Z,12.81
2023-05-21T02:37:45.088Z,12.80
2023-05-21T02:40:12.134Z,12.80
2023-05-21T02:42:40.495Z,12.81
2023-05-21T02:45:11.841Z,12.81
2023-05-21T02:47:38.894Z,12.79
2023-05-21T02:50:07.438Z,12.77
2023-05-21T02:52:34.278Z,12.75
2023-05-21T02:55:00.839Z,12.75
2023-05-21T02:57:27.514Z,12.74
2023-05-21T02:59:54.205Z,12.73
2023-05-21T03:02:20.827Z,12.69
2023-05-21T03:04:47.419Z,12.65
2023-05-21T03:07:15.699Z,12.64
2023-05-21T03:09:42.369Z,12.62
2023-05-21T03:12:09.246Z,12.60
2023-05-21T03:14:35.887Z,12.59
2023-05-21T03:17:03.057Z,12.59
2023-05-21T03:19:29.728Z,12.57
2023-05-21T03:21:56.454Z,12.55
2023-05-21T03:24:23.298Z,12.53
2023-05-21T03:26:49.915Z,12.44
2023-05-21T03:29:16.433Z,12.33
2023-05-21T03:31:43.210Z,12.23
2023-05-21T03:34:09.729Z,12.16
2023-05-21T03:36:36.435Z,12.12
2023-05-21T03:39:03.362Z,12.06
2023-05-21T03:41:30.090Z,12.06
2023-05-21T03:43:56.805Z,12.05
2023-05-21T03:46:23.426Z,12.05
2023-05-21T03:48:50.042Z,12.03
2023-05-21T03:51:16.661Z,12.01
2023-05-21T03:53:43.428Z,11.98
2023-05-21T03:56:10.255Z,11.96
2023-05-21T03:58:36.964Z,11.98
2023-05-21T04:01:03.691Z,11.99
2023-05-21T04:03:31.323Z,12.00
2023-05-21T04:05:57.886Z,12.05
2023-05-21T04:08:24.389Z,12.04
2023-05-21T04:10:51.355Z,12.07
2023-05-21T04:13:21.316Z,12.11
2023-05-21T04:15:47.942Z,12.16
2023-05-21T04:18:14.809Z,12.16
2023-05-21T04:20:41.559Z,12.13
2023-05-21T04:23:08.172Z,12.12
2023-05-21T04:25:35.253Z,12.14
2023-05-21T04:28:01.876Z,12.21
2023-05-21T04:30:28.462Z,12.25
2023-05-21T04:32:55.048Z,12.20
2023-05-21T04:35:21.814Z,12.13
2023-05-21T04:37:48.499Z,12.10
2023-05-21T04:40:15.314Z,12.04
2023-05-21T04:42:41.861Z,11.97
2023-05-21T04:45:09.089Z,11.95
2023-05-21T04:47:35.970Z,11.95
2023-05-21T04:50:02.956Z,11.96
2023-05-21T04:52:29.356Z,12.10
2023-05-21T04:54:56.109Z,12.18
2023-05-21T04:57:22.794Z,12.34
2023-05-21T04:59:49.499Z,12.41
2023-05-21T05:02:16.348Z,12.52
2023-05-21T05:04:43.039Z,12.57
2023-05-21T05:07:09.941Z,12.61
2023-05-21T05:09:36.640Z,12.59
2023-05-21T05:12:03.360Z,12.70
2023-05-21T05:14:30.290Z,12.70
2023-05-21T05:16:57.027Z,12.74
2023-05-21T05:19:23.596Z,12.74
2023-05-21T05:21:50.195Z,12.86
2023-05-21T05:24:16.986Z,12.82
2023-05-21T05:26:43.708Z,12.93
2023-05-21T05:29:10.236Z,13.01
2023-05-21T05:31:37.133Z,13.03
2023-05-21T05:34:03.664Z,13.02
2023-05-21T05:36:30.179Z,13.22
2023-05-21T05:38:57.011Z,13.17
2023-05-21T05:41:23.804Z,13.46
2023-05-21T05:43:50.385Z,13.63
2023-05-21T05:46:17.239Z,13.67
2023-05-21T05:48:43.917Z,13.82
2023-05-21T05:51:10.520Z,14.15
2023-05-21T05:53:37.241Z,14.44
2023-05-21T05:56:04.566Z,14.76
2023-05-21T05:58:31.094Z,15.18
2023-05-21T06:00:57.657Z,15.47
2023-05-21T06:03:24.383Z,15.61
2023-05-21T06:05:51.337Z,16.25
2023-05-21T06:08:17.769Z,16.63
2023-05-21T06:10:44.510Z,16.55
2023-05-21T06:13:11.106Z,16.79
2023-05-21T06:15:37.872Z,16.61
2023-05-21T06:18:04.679Z,16.49
2023-05-21T06:20:31.358Z,16.65
2023-05-21T06:22:57.977Z,16.69
2023-05-21T06:25:24.676Z,16.88
2023-05-21T06:27:51.908Z,16.72
2023-05-21T06:30:18.592Z,16.78
2023-05-21T06:32:45.304Z,16.68
2023-05-21T06:35:11.880Z,16.71
2023-05-21T06:37:38.427Z,17.11
2023-05-21T06:40:05.475Z,16.69
2023-05-21T06:42:32.043Z,16.65
2023-05-21T06:44:59.420Z,17.03
2023-05-21T06:47:26.234Z,17.38
2023-05-21T06:49:52.879Z,16.75
2023-05-21T06:52:19.469Z,16.89
2023-05-21T06:54:46.984Z,16.59
2023-05-21T06:57:15.181Z,17.02
2023-05-21T06:59:41.739Z,17.09
2023-05-21T07:02:08.400Z,16.88
2023-05-21T07:04:34.993Z,16.68
2023-05-21T07:07:02.786Z,16.94
2023-05-21T07:09:29.435Z,17.51
2023-05-21T07:11:56.050Z,17.85
2023-05-21T07:14:23.758Z,17.91
2023-05-21T07:16:50.402Z,18.05
2023-05-21T07:19:17.134Z,18.03
2023-05-21T07:21:43.990Z,18.11
2023-05-21T07:24:10.857Z,18.54
2023-05-21T07:26:37.489Z,18.83
2023-05-21T07:29:04.046Z,18.74
2023-05-21T07:31:30.487Z,19.09
2023-05-21T07:33:57.085Z,19.23
2023-05-21T07:36:23.957Z,19.05
2023-05-21T07:38:50.600Z,19.35
2023-05-21T07:41:18.530Z,19.12
2023-05-21T07:43:45.509Z,19.55
2023-05-21T07:46:12.296Z,19.70
2023-05-21T07:48:38.958Z,19.88
2023-05-21T07:51:06.035Z,20.07
2023-05-21T07:53:32.805Z,19.88
2023-05-21T07:56:00.580Z,20.37
2023-05-21T07:58:27.185Z,19.79
2023-05-21T08:00:53.922Z,19.98
2023-05-21T08:03:20.787Z,20.58
2023-05-21T08:05:47.922Z,20.22
2023-05-21T08:08:20.678Z,20.05
2023-05-21T08:10:47.517Z,20.62
2023-05-21T08:13:16.037Z,20.42
2023-05-21T08:15:42.845Z,20.39
2023-05-21T08:18:09.414Z,20.12
2023-05-21T08:20:36.269Z,20.51
2023-05-21T08:23:03.091Z,20.66
2023-05-21T08:25:30.311Z,20.44
2023-05-21T08:27:58.764Z,19.95
2023-05-21T08:30:25.207Z,19.67
2023-05-21T08:32:51.867Z,20.01
2023-05-21T08:35:18.767Z,20.25
2023-05-21T08:37:45.219Z,20.20
2023-05-21T08:40:12.640Z,20.66
2023-05-21T08:42:48.270Z,20.51
2023-05-21T08:45:20.534Z,20.67
2023-05-21T08:47:48.342Z,20.26
2023-05-21T08:50:17.212Z,20.32
2023-05-21T08:52:43.707Z,20.32
2023-05-21T08:55:14.099Z,20.74
2023-05-21T08:57:44.643Z,20.44
2023-05-21T09:00:11.773Z,21.19
2023-05-21T09:02:39.051Z,21.40
2023-05-21T09:05:06.471Z,21.39
2023-05-21T09:07:40.048Z,21.82
2023-05-21T09:10:14.167Z,22.00
2023-05-21T09:12:40.714Z,22.19
2023-05-21T09:15:07.914Z,22.40
2023-05-21T09:17:36.075Z,22.39
2023-05-21T09:20:09.011Z,22.24
2023-05-21T09:22:37.322Z,21.95
2023-05-21T09:25:06.954Z,22.03
2023-05-21T09:27:34.697Z,22.74
2023-05-21T09:30:09.595Z,23.08
2023-05-21T09:32:36.263Z,23.13
2023-05-21T09:35:11.295Z,23.03
2023-05-21T09:37:39.816Z,23.28
2023-05-21T09:40:20.780Z,23.37
2023-05-21T09:42:49.846Z,24.43
2023-05-21T09:45:26.227Z,23.81
2023-05-21T09:47:54.698Z,23.35
2023-05-21T09:50:23.976Z,23.61
2023-05-21T09:52:51.468Z,24.43
2023-05-21T09:55:18.431Z,24.41
2023-05-21T09:57:50.587Z,24.81
2023-05-21T10:00:18.807Z,23.69
2023-05-21T10:02:47.108Z,23.78
2023-05-21T10:05:20.629Z,23.22
2023-05-21T10:07:52.467Z,23.91
2023-05-21T10:10:22.741Z,24.10
2023-05-21T10:12:54.954Z,24.32
2023-05-21T10:15:24.565Z,24.50
2023-05-21T10:17:52.574Z,24.51
2023-05-21T10:20:20.202Z,25.04
2023-05-21T10:22:48.900Z,24.25
2023-05-21T10:25:16.213Z,23.99
2023-05-21T10:27:43.351Z,23.84
2023-05-21T10:30:10.605Z,23.91
2023-05-21T10:32:40.650Z,24.02
2023-05-21T10:35:08.925Z,23.90
2023-05-21T10:37:36.351Z,23.74
2023-05-21T10:40:03.052Z,23.91
2023-05-21T10:42:29.510Z,23.37
2023-05-21T10:45:11.866Z,23.63
2023-05-21T10:48:02.625Z,23.59
2023-05-21T10:50:54.182Z,23.54
2023-05-21T10:53:59.801Z,23.48
2023-05-21T10:56:38.947Z,23.60
2023-05-21T10:59:36.592Z,23.77
2023-05-21T11:02:05.912Z,24.21
2023-05-21T11:04:32.875Z,23.78
2023-05-21T11:07:01.513Z,24.16
2023-05-21T11:09:31.493Z,23.88
2023-05-21T11:11:59.829Z,24.14
2023-05-21T11:14:42.239Z,24.34
2023-05-21T11:17:39.352Z,24.60
2023-05-21T11:20:14.006Z,23.89
2023-05-21T11:22:40.559Z,24.35
2023-05-21T11:25:07.885Z,24.54
2023-05-21T11:27:37.050Z,24.65
2023-05-21T11:30:25.129Z,24.50
2023-05-21T11:33:10.428Z,24.97
2023-05-21T11:35:46.130Z,24.96
2023-05-21T11:38:13.189Z,25.07
2023-05-21T11:40:51.040Z,24.88
2023-05-21T11:43:18.724Z,25.02
2023-05-21T11:45:45.364Z,24.68
2023-05-21T11:48:13.855Z,24.53
2023-05-21T11:50:41.091Z,24.89
2023-05-21T11:53:10.362Z,24.81
2023-05-21T11:55:40.381Z,24.61
2023-05-21T11:58:07.370Z,24.70
2023-05-21T12:00:39.087Z,24.56
2023-05-21T12:03:06.392Z,24.35
2023-05-21T12:05:50.366Z,24.54
2023-05-21T12:08:23.899Z,24.39
2023-05-21T12:10:58.586Z,24.45
2023-05-21T12:13:25.869Z,24.32
2023-05-21T12:15:54.765Z,24.68
2023-05-21T12:18:22.109Z,25.08
2023-05-21T12:20:52.364Z,25.08
2023-05-21T12:23:19.665Z,24.64
2023-05-21T12:25:47.299Z,25.36
2023-05-21T12:28:14.321Z,25.67
2023-05-21T12:30:40.966Z,25.54
2023-05-21T12:33:13.784Z,25.40
2023-05-21T12:35:40.249Z,25.51
2023-05-21T12:38:07.489Z,25.09
2023-05-21T12:40:38.387Z,24.93
2023-05-21T12:43:07.059Z,25.02
2023-05-21T12:45:34.497Z,25.26
2023-05-21T12:48:02.176Z,25.44
2023-05-21T12:50:28.918Z,25.68
2023-05-21T12:52:55.926Z,25.61
2023-05-21T12:55:24.264Z,25.44
2023-05-21T12:57:50.948Z,25.37
2023-05-21T13:00:23.958Z,25.73
2023-05-21T13:02:52.805Z,25.14
2023-05-21T13:05:19.644Z,25.09
2023-05-21T13:07:46.835Z,25.26
2023-05-21T13:10:15.303Z,25.40
2023-05-21T13:12:44.206Z,25.54
2023-05-21T13:15:11.561Z,25.67
2023-05-21T13:17:38.223Z,25.67
2023-05-21T13:20:14.731Z,26.11
2023-05-21T13:22:46.814Z,25.91
2023-05-21T13:25:33.964Z,25.75
2023-05-21T13:28:04.697Z,25.19
2023-05-21T13:30:31.520Z,25.06
2023-05-21T13:32:58.374Z,24.68
2023-05-21T13:35:28.716Z,24.48
2023-05-21T13:37:55.405Z,24.75
2023-05-21T13:40:22.330Z,24.47
2023-05-21T13:42:50.375Z,24.69
2023-05-21T13:45:20.605Z,24.62
2023-05-21T13:47:47.920Z,24.99
2023-05-21T13:50:17.524Z,25.07
2023-05-21T13:52:47.394Z,24.56
2023-05-21T13:55:14.356Z,25.05
2023-05-21T13:57:41.799Z,24.79
2023-05-21T14:00:09.262Z,24.43
2023-05-21T14:02:36.300Z,24.76
2023-05-21T14:05:03.672Z,24.79
2023-05-21T14:07:30.456Z,24.96
2023-05-21T14:10:00.193Z,24.88
2023-05-21T14:12:26.790Z,24.46
2023-05-21T14:14:53.421Z,24.57
2023-05-21T14:17:20.219Z,24.41
2023-05-21T14:19:46.811Z,24.13
2023-05-21T14:22:13.479Z,24.11
2023-05-21T14:24:40.558Z,23.89
2023-05-21T14:27:07.851Z,24.07
2023-05-21T14:29:34.431Z,24.63
2023-05-21T14:32:00.971Z,24.41
2023-05-21T14:34:27.680Z,24.38
2023-05-21T14:36:54.481Z,24.26
2023-05-21T14:39:21.018Z,24.24
2023-05-21T14:41:48.001Z,24.26
2023-05-21T14:44:14.860Z,24.54
2023-05-21T14:46:41.971Z,24.36
2023-05-21T14:49:08.818Z,24.62
2023-05-21T14:51:35.564Z,24.55
2023-05-21T14:54:02.286Z,24.48
2023-05-21T14:56:29.341Z,24.37
2023-05-21T14:58:56.379Z,24.38
2023-05-21T15:01:23.528Z,24.47
2023-05-21T15:03:50.616Z,24.56
2023-05-21T15:06:17.664Z,24.85
2023-05-21T15:08:44.408Z,25.04
2023-05-21T15:11:10.942Z,25.03
2023-05-21T15:13:38.760Z,25.20
2023-05-21T15:16:05.800Z,25.33
2023-05-21T15:18:32.367Z,25.15
2023-05-21T15:20:59.081Z,25.40
2023-05-21T15:23:25.625Z,25.34
2023-05-21T15:25:52.359Z,25.28
2023-05-21T15:28:19.322Z,25.47
2023-05-21T15:30:46.167Z,25.53
2023-05-21T15:33:12.935Z,25.74
2023-05-21T15:35:41.092Z,25.95
2023-05-21T15:38:08.195Z,25.94
2023-05-21T15:40:34.880Z,25.83
2023-05-21T15:43:01.659Z,25.79
2023-05-21T15:45:28.127Z,25.87
2023-05-21T15:47:54.942Z,25.77
2023-05-21T15:50:21.654Z,25.71
2023-05-21T15:52:50.389Z,25.57
2023-05-21T15:55:20.550Z,25.47
2023-05-21T15:57:46.985Z,25.37
2023-05-21T16:00:13.910Z,25.29
2023-05-21T16:02:40.867Z,25.10
2023-05-21T16:05:09.293Z,25.13
2023-05-21T16:07:37.957Z,25.08
2023-05-21T16:10:06.267Z,24.93
2023-05-21T16:12:33.471Z,24.66
2023-05-21T16:15:00.467Z,24.55
2023-05-21T16:17:27.754Z,24.51
2023-05-21T16:19:54.411Z,24.42
2023-05-21T16:22:29.448Z,24.45
2023-05-21T16:24:55.993Z,24.27
2023-05-21T16:27:22.813Z,24.14
2023-05-21T16:30:03.040Z,24.02
2023-05-21T16:32:29.700Z,24.00
2023-05-21T16:34:56.353Z,23.92
2023-05-21T16:37:23.014Z,23.83
2023-05-21T16:39:49.594Z,23.82
2023-05-21T16:42:16.148Z,23.86
2023-05-21T16:44:43.003Z,23.96
2023-05-21T16:47:09.554Z,24.03
2023-05-21T16:49:37.862Z,24.14
2023-05-21T16:52:05.002Z,24.18
2023-05-21T16:54:31.632Z,24.27
2023-05-21T16:57:01.401Z,24.27
2023-05-21T16:59:53.535Z,24.30
2023-05-21T17:02:22.208Z,24.24
2023-05-21T17:04:49.192Z,24.37
2023-05-21T17:07:16.434Z,24.37
2023-05-21T17:09:43.257Z,24.38
2023-05-21T17:12:41.988Z,24.46
2023-05-21T17:15:33.027Z,24.31
2023-05-21T17:18:01.529Z,24.33
2023-05-21T17:20:28.169Z,24.39
2023-05-21T17:22:55.054Z,24.29
2023-05-21T17:25:29.811Z,24.28
2023-05-21T17:27:56.441Z,24.23
2023-05-21T17:30:22.946Z,24.25
2023-05-21T17:32:50.572Z,24.27
2023-05-21T17:35:17.822Z,24.16
2023-05-21T17:37:45.387Z,23.97
2023-05-21T17:40:12.348Z,23.83
2023-05-21T17:42:39.494Z,23.70
2023-05-21T17:45:06.600Z,23.65
2023-05-21T17:47:33.557Z,23.57
2023-05-21T17:50:00.720Z,23.51
2023-05-21T17:52:29.523Z,23.44
2023-05-21T17:54:56.458Z,23.33
2023-05-21T17:57:23.002Z,23.28
2023-05-21T17:59:49.657Z,23.17
2023-05-21T18:02:16.263Z,23.05
2023-05-21T18:04:44.330Z,22.90
2023-05-21T18:07:11.196Z,22.83
2023-05-21T18:09:38.153Z,22.75
2023-05-21T18:12:05.197Z,22.59
2023-05-21T18:14:33.060Z,22.33
2023-05-21T18:17:00.099Z,22.22
2023-05-21T18:19:26.893Z,22.14
2023-05-21T18:21:53.648Z,21.98
2023-05-21T18:24:20.272Z,21.85
2023-05-21T18:26:46.958Z,21.71
2023-05-21T18:29:13.768Z,21.52
2023-05-21T18:31:41.259Z,21.42
2023-05-21T18:34:07.908Z,21.28
2023-05-21T18:36:34.510Z,21.18
2023-05-21T18:39:01.366Z,21.11
2023-05-21T18:41:28.238Z,20.95
2023-05-21T18:43:54.802Z,20.79
2023-05-21T18:46:22.014Z,20.60
2023-05-21T18:48:48.669Z,20.46
2023-05-21T18:51:15.348Z,20.34
2023-05-21T18:53:41.983Z,20.23
2023-05-21T18:56:08.762Z,20.11
2023-05-21T18:58:35.514Z,19.99
2023-05-21T19:01:02.190Z,19.87
2023-05-21T19:03:29.215Z,19.76
2023-05-21T19:05:55.812Z,19.63
2023-05-21T19:08:22.436Z,19.52
2023-05-21T19:10:49.051Z,19.40
2023-05-21T19:13:15.647Z,19.33
2023-05-21T19:15:43.037Z,19.26
2023-05-21T19:18:10.703Z,19.13
2023-05-21T19:20:37.506Z,19.11
2023-05-21T19:23:06.111Z,19.04
2023-05-21T19:25:32.931Z,18.89
2023-05-21T19:28:00.247Z,18.80
2023-05-21T19:30:26.910Z,18.73
2023-05-21T19:32:53.934Z,18.62
2023-05-21T19:35:21.748Z,18.54
2023-05-21T19:37:48.803Z,18.45
2023-05-21T19:40:15.755Z,18.34
2023-05-21T19:42:42.711Z,18.26
2023-05-21T19:45:09.812Z,18.13
2023-05-21T19:47:36.582Z,18.05
2023-05-21T19:50:04.360Z,18.00
2023-05-21T19:52:31.361Z,17.95
2023-05-21T19:54:58.266Z,17.88
2023-05-21T19:57:25.014Z,17.79
2023-05-21T19:59:51.702Z,17.73
2023-05-21T20:02:18.567Z,17.66
2023-05-21T20:04:45.097Z,17.64
2023-05-21T20:07:11.924Z,17.62
2023-05-21T20:09:39.170Z,17.54
2023-05-21T20:12:06.321Z,17.40
2023-05-21T20:14:33.076Z,17.31
2023-05-21T20:17:03.002Z,17.23
2023-05-21T20:19:29.680Z,17.17
2023-05-21T20:21:56.668Z,17.13
2023-05-21T20:24:23.277Z,17.08
2023-05-21T20:26:49.882Z,17.07
2023-05-21T20:29:16.700Z,17.06
2023-05-21T20:31:44.192Z,17.04
2023-05-21T20:34:10.745Z,17.00
2023-05-21T20:36:38.929Z,16.95
2023-05-21T20:39:05.420Z,16.89
2023-05-21T20:41:32.027Z,16.85
2023-05-21T20:43:58.434Z,16.79
2023-05-21T20:46:25.226Z,16.73
2023-05-21T20:48:51.851Z,16.61
2023-05-21T20:51:18.673Z,16.50
2023-05-21T20:53:45.176Z,16.32
2023-05-21T20:56:11.674Z,16.27
2023-05-21T20:58:38.297Z,16.18
2023-05-21T21:01:04.937Z,16.20
2023-05-21T21:03:31.546Z,16.25
2023-05-21T21:05:58.462Z,16.15
2023-05-21T21:08:24.948Z,16.02
2023-05-21T21:10:51.472Z,15.86
2023-05-21T21:13:17.883Z,15.83
2023-05-21T21:15:44.486Z,15.82
2023-05-21T21:18:11.587Z,15.72
2023-05-21T21:20:38.570Z,15.62
2023-05-21T21:23:05.503Z,15.57
2023-05-21T21:25:32.233Z,15.62
2023-05-21T21:27:58.834Z,15.58
2023-05-21T21:30:25.345Z,15.39
2023-05-21T21:32:51.833Z,15.34
2023-05-21T21:35:18.847Z,15.32
2023-05-21T21:37:45.603Z,15.33
2023-05-21T21:40:12.811Z,15.33
2023-05-21T21:42:39.595Z,15.29
2023-05-21T21:45:07.091Z,15.23
2023-05-21T21:47:33.719Z,15.25
2023-05-21T21:50:00.255Z,15.14
2023-05-21T21:52:27.604Z,14.98
2023-05-21T21:54:55.338Z,14.97
2023-05-21T21:57:22.272Z,14.98
2023-05-21T21:59:48.864Z,14.78
2023-05-21T22:02:15.499Z,14.65
2023-05-21T22:04:42.253Z,14.65
2023-05-21T22:07:08.798Z,14.65
2023-05-21T22:09:35.545Z,14.66
2023-05-21T22:12:02.325Z,14.66
2023-05-21T22:14:28.942Z,14.63
2023-05-21T22:16:55.783Z,14.63
2023-05-21T22:19:22.632Z,14.64
2023-05-21T22:21:49.374Z,14.55
2023-05-21T22:24:30.786Z,14.51
2023-05-21T22:26:58.329Z,14.45
2023-05-21T22:29:24.829Z,14.41
2023-05-21T22:31:51.322Z,14.40
2023-05-21T22:34:17.956Z,14.37
2023-05-21T22:36:44.618Z,14.31
2023-05-21T22:39:11.367Z,14.30
2023-05-21T22:41:38.063Z,14.29
2023-05-21T22:44:04.694Z,14.28
2023-05-21T22:46:31.321Z,14.25
2023-05-21T22:48:57.803Z,14.24
2023-05-21T22:51:24.333Z,14.23
2023-05-21T22:53:50.927Z,14.19
2023-05-21T22:56:17.506Z,14.17
2023-05-21T22:58:44.003Z,14.10
2023-05-21T23:01:10.737Z,14.00
2023-05-21T23:03:37.254Z,13.97
2023-05-21T23:06:03.972Z,13.83
2023-05-21T23:08:30.465Z,13.79
2023-05-21T23:10:56.893Z,13.70
2023-05-21T23:13:23.341Z,13.73
2023-05-21T23:15:50.006Z,13.69
2023-05-21T23:18:16.511Z,13.67
2023-05-21T23:20:43.445Z,13.65
2023-05-21T23:23:10.263Z,13.59
2023-05-21T23:25:38.263Z,13.60
2023-05-21T23:28:05.048Z,13.56
2023-05-21T23:30:31.676Z,13.52
2023-05-21T23:32:58.488Z,13.49
2023-05-21T23:35:25.095Z,13.49
2023-05-21T23:37:51.611Z,13.50
2023-05-21T23:40:18.124Z,13.50
2023-05-21T23:42:44.716Z,13.52
2023-05-21T23:45:11.838Z,13.54
2023-05-21T23:47:38.450Z,13.52
2023-05-21T23:50:05.911Z,13.50
2023-05-21T23:52:32.599Z,13.43
2023-05-21T23:54:59.479Z,13.33
2023-05-21T23:57:25.987Z,13.26
2023-05-21T23:59:52.993Z,13.20
